Time;durP1;ratioP1;P1;durP2;ratioP2;P2;SDS_P1;SDS_P2;PMS_P1;PMS_P2;Temp;Humidity;BMP_temperature;BMP_pressure;BME280_temperature;BME280_humidity;BME280_pressure;Samples;Min_cycle;Max_cycle;Signal;HPM_P1;HPM_P2
2022/09/18 00:01:22;;;;;;;0.10;0.10;;;15.20;99.90;;;;;;6152967;23;20036;-77
2022/09/18 00:03:47;;;;;;;0.20;0.20;;;15.20;99.90;;;;;;6154761;23;20010;-77
2022/09/18 00:06:19;;;;;;;0.20;0.10;;;15.20;99.90;;;;;;6153176;23;20016;-78
2022/09/18 00:08:47;;;;;;;0.25;0.20;;;15.20;99.90;;;;;;6154375;23;20010;-77
2022/09/18 00:11:14;;;;;;;0.20;0.20;;;15.10;99.90;;;;;;6154437;23;20084;-77
2022/09/18 00:13:40;;;;;;;0.25;0.25;;;15.20;99.90;;;;;;6154404;23;20005;-77
2022/09/18 00:16:09;;;;;;;0.40;0.20;;;15.00;99.90;;;;;;6154289;23;20004;-77
2022/09/18 00:18:35;;;;;;;0.15;0.15;;;15.00;99.90;;;;;;6154396;23;20060;-77
2022/09/18 00:21:06;;;;;;;0.35;0.20;;;14.90;99.90;;;;;;6154269;23;20073;-77
2022/09/18 00:23:32;;;;;;;2.38;0.20;;;15.00;99.90;;;;;;6152677;23;20009;-77
2022/09/18 00:25:58;;;;;;;0.30;0.30;;;15.00;99.90;;;;;;6154398;23;20053;-77
2022/09/18 00:28:24;;;;;;;0.10;0.10;;;15.00;99.90;;;;;;6152654;23;20064;-77
2022/09/18 00:30:49;;;;;;;0.20;0.20;;;14.90;99.90;;;;;;6154272;23;20080;-77
2022/09/18 00:33:15;;;;;;;0.20;0.20;;;14.80;99.90;;;;;;6154459;23;20034;-77
2022/09/18 00:35:42;;;;;;;0.40;0.20;;;14.70;99.90;;;;;;6154010;23;20009;-77
2022/09/18 00:38:08;;;;;;;0.10;0.10;;;14.70;99.90;;;;;;6154248;23;20004;-77
2022/09/18 00:40:34;;;;;;;0.38;0.20;;;14.70;99.90;;;;;;6154057;23;20460;-77
2022/09/18 00:43:22;;;;;;;3.08;0.28;;;14.70;99.90;;;;;;6152593;23;20080;-77
2022/09/18 00:46:00;;;;;;;0.20;0.20;;;14.70;99.90;;;;;;6154234;23;19998;-77
2022/09/18 00:48:36;;;;;;;0.10;0.10;;;14.70;99.90;;;;;;6154154;23;20475;-77
2022/09/18 00:51:03;;;;;;;0.73;0.30;;;14.70;99.90;;;;;;6154021;23;20007;-77
2022/09/18 00:53:28;;;;;;;0.10;0.10;;;14.70;99.90;;;;;;6154100;23;20460;-77
2022/09/18 00:55:56;;;;;;;0.10;0.10;;;14.80;99.50;;;;;;6153834;23;20017;-77
2022/09/18 00:58:22;;;;;;;0.20;0.20;;;14.80;99.70;;;;;;6144655;23;20008;-77
2022/09/18 01:00:47;;;;;;;0.25;0.22;;;14.80;99.90;;;;;;6148953;23;19997;-77
2022/09/18 01:03:13;;;;;;;0.28;0.28;;;14.90;99.40;;;;;;6148739;23;20001;-78
2022/09/18 01:06:09;;;;;;;0.25;0.25;;;14.90;99.50;;;;;;6148488;23;20079;-77
2022/09/18 01:08:44;;;;;;;0.95;0.32;;;14.90;99.00;;;;;;6149276;23;20433;-77
2022/09/18 01:11:43;;;;;;;0.20;0.20;;;14.90;98.60;;;;;;6149551;23;20044;-77
2022/09/18 01:14:18;;;;;;;0.20;0.20;;;15.00;98.70;;;;;;6146906;23;20055;-77
2022/09/18 01:17:20;;;;;;;0.10;0.10;;;14.90;98.50;;;;;;6148260;23;20009;-77
2022/09/18 01:19:58;;;;;;;0.30;0.30;;;15.00;99.00;;;;;;6148747;23;20307;-78
2022/09/18 01:22:34;;;;;;;0.20;0.20;;;15.00;99.20;;;;;;6148652;23;20008;-77
2022/09/18 01:25:25;;;;;;;0.20;0.20;;;14.90;99.20;;;;;;6148471;23;20337;-77
2022/09/18 01:28:15;;;;;;;0.20;0.20;;;14.80;99.90;;;;;;6148383;23;20075;-77
2022/09/18 01:30:44;;;;;;;0.95;0.32;;;14.80;99.90;;;;;;6147244;23;20080;-78
2022/09/18 01:33:24;;;;;;;0.30;0.30;;;14.80;99.90;;;;;;6148278;23;20056;-78
2022/09/18 01:35:55;;;;;;;0.20;0.10;;;14.80;99.80;;;;;;6151422;23;20084;-77
2022/09/18 01:39:01;;;;;;;0.20;0.20;;;14.70;99.40;;;;;;6149224;23;20006;-77
2022/09/18 01:41:28;;;;;;;0.20;0.20;;;14.70;99.60;;;;;;6086000;23;20010;-77
2022/09/18 01:44:04;;;;;;;0.65;0.20;;;14.70;99.70;;;;;;6156476;23;20372;-77
2022/09/18 01:46:31;;;;;;;0.15;0.15;;;14.70;99.90;;;;;;6173056;23;20333;-77
2022/09/18 01:49:08;;;;;;;0.20;0.20;;;14.60;99.90;;;;;;6150483;23;20005;-77
2022/09/18 01:51:42;;;;;;;1.55;0.30;;;14.50;99.90;;;;;;6150310;23;20373;-77
2022/09/18 01:54:14;;;;;;;0.15;0.15;;;14.50;99.90;;;;;;6149964;23;20005;-77
2022/09/18 01:56:51;;;;;;;0.20;0.20;;;14.70;99.90;;;;;;6150173;23;20389;-77
2022/09/18 01:59:35;;;;;;;0.35;0.35;;;14.60;99.90;;;;;;6151868;23;20001;-77
2022/09/18 02:02:03;;;;;;;0.17;0.17;;;14.60;99.90;;;;;;6155349;23;20031;-77
2022/09/18 02:04:34;;;;;;;0.55;0.30;;;14.50;99.90;;;;;;6155703;23;20005;-78
2022/09/18 02:07:13;;;;;;;0.10;0.10;;;14.40;99.90;;;;;;6155698;23;20398;-78
2022/09/18 02:09:39;;;;;;;0.93;0.15;;;14.50;99.90;;;;;;6155152;23;20319;-78
2022/09/18 02:12:10;;;;;;;0.28;0.28;;;14.40;99.90;;;;;;6156882;23;20053;-78
2022/09/18 02:14:41;;;;;;;1.92;0.30;;;14.40;99.90;;;;;;6152612;23;20483;-78
2022/09/18 02:17:31;;;;;;;0.20;0.20;;;14.40;99.90;;;;;;6151742;23;19997;-78
2022/09/18 02:20:02;;;;;;;0.22;0.22;;;14.40;99.90;;;;;;6133962;23;20006;-77
2022/09/18 02:22:31;;;;;;;0.20;0.20;;;14.30;99.90;;;;;;6147010;23;20017;-77
2022/09/18 02:25:00;;;;;;;0.17;0.17;;;14.30;99.90;;;;;;6146833;23;20006;-77
2022/09/18 02:27:28;;;;;;;0.10;0.10;;;14.30;99.90;;;;;;6148353;23;20081;-77
2022/09/18 02:29:55;;;;;;;0.20;0.20;;;14.20;99.90;;;;;;6148806;23;20268;-77
2022/09/18 02:32:21;;;;;;;0.20;0.20;;;14.20;99.90;;;;;;6148188;23;20080;-78
2022/09/18 02:34:47;;;;;;;0.20;0.20;;;14.20;99.90;;;;;;6147711;23;20104;-77
2022/09/18 02:37:53;;;;;;;0.20;0.20;;;14.20;99.90;;;;;;6146772;23;20017;-77
2022/09/18 02:40:25;;;;;;;0.20;0.20;;;14.10;99.90;;;;;;6148109;23;20273;-77
2022/09/18 02:43:05;;;;;;;0.43;0.13;;;14.10;99.90;;;;;;6149649;23;20036;-77
2022/09/18 02:45:35;;;;;;;0.20;0.20;;;14.10;99.90;;;;;;6149749;23;20006;-77
2022/09/18 02:48:38;;;;;;;1.20;0.10;;;14.00;99.90;;;;;;6149925;23;20001;-77
2022/09/18 02:51:15;;;;;;;0.20;0.20;;;13.90;99.90;;;;;;6151212;23;20080;-78
2022/09/18 02:54:13;;;;;;;0.20;0.20;;;13.90;99.90;;;;;;6155344;23;20077;-78
2022/09/18 02:56:50;;;;;;;1.08;0.20;;;13.80;99.90;;;;;;6121589;23;20057;-78
2022/09/18 02:59:30;;;;;;;0.45;0.20;;;13.70;99.90;;;;;;6147059;23;20076;-80
2022/09/18 03:01:57;;;;;;;0.20;0.20;;;13.70;99.90;;;;;;6149255;23;20081;-79
2022/09/18 03:04:25;;;;;;;0.32;0.32;;;13.70;99.90;;;;;;6153680;23;20085;-81
2022/09/18 03:06:51;;;;;;;0.10;0.10;;;13.80;99.90;;;;;;6150389;23;20005;-80
2022/09/18 03:09:18;;;;;;;0.13;0.13;;;13.80;99.90;;;;;;6154834;23;20356;-81
2022/09/18 03:11:44;;;;;;;0.65;0.20;;;13.80;99.90;;;;;;6153471;23;20070;-81
2022/09/18 03:14:10;;;;;;;0.95;0.30;;;13.80;99.90;;;;;;6152417;23;20006;-80
2022/09/18 03:16:36;;;;;;;0.20;0.20;;;13.80;99.90;;;;;;6152150;23;20103;-79
2022/09/18 03:19:01;;;;;;;0.30;0.30;;;13.70;99.90;;;;;;6154101;23;20402;-79
2022/09/18 03:21:28;;;;;;;0.30;0.30;;;13.70;99.90;;;;;;6150788;23;20005;-79
2022/09/18 03:23:54;;;;;;;1.00;1.00;;;13.70;99.90;;;;;;6152780;23;20052;-79
2022/09/18 03:26:23;;;;;;;0.47;0.38;;;13.80;99.90;;;;;;6154464;23;20005;-79
2022/09/18 03:28:54;;;;;;;0.20;0.20;;;14.10;99.90;;;;;;6156214;23;20059;-79
2022/09/18 03:31:19;;;;;;;1.10;0.30;;;13.80;99.90;;;;;;6152875;23;20006;-79
2022/09/18 03:33:45;;;;;;;0.25;0.25;;;13.80;99.90;;;;;;6152457;23;20014;-79
2022/09/18 03:36:11;;;;;;;0.65;0.20;;;13.70;99.90;;;;;;6154092;23;20006;-79
2022/09/18 03:38:37;;;;;;;0.20;0.20;;;13.70;99.90;;;;;;6154673;23;19997;-79
2022/09/18 03:41:03;;;;;;;0.63;0.30;;;13.70;99.90;;;;;;6154650;23;19998;-79
2022/09/18 03:43:29;;;;;;;0.30;0.30;;;13.70;99.90;;;;;;6154643;23;20028;-79
2022/09/18 03:45:55;;;;;;;0.38;0.38;;;13.70;99.90;;;;;;6154712;23;20009;-79
2022/09/18 03:48:21;;;;;;;0.20;0.20;;;13.70;99.90;;;;;;6154718;23;20005;-79
2022/09/18 03:50:48;;;;;;;0.10;0.10;;;13.70;99.90;;;;;;6153026;23;20009;-80
2022/09/18 03:53:13;;;;;;;0.20;0.20;;;13.70;99.90;;;;;;6177688;23;20012;-79
2022/09/18 03:55:39;;;;;;;1.02;0.30;;;13.70;99.90;;;;;;6154466;23;20037;-79
2022/09/18 03:58:05;;;;;;;0.20;0.20;;;13.60;99.90;;;;;;6154606;23;20373;-79
2022/09/18 04:00:31;;;;;;;0.20;0.20;;;13.70;99.90;;;;;;6152767;23;20016;-79
2022/09/18 04:02:57;;;;;;;0.20;0.20;;;13.70;99.90;;;;;;6152953;23;20040;-79
2022/09/18 04:05:23;;;;;;;0.20;0.20;;;13.70;99.90;;;;;;6152979;23;20006;-79
2022/09/18 04:07:49;;;;;;;0.10;0.10;;;13.70;99.90;;;;;;6154655;23;20008;-79
2022/09/18 04:10:14;;;;;;;0.30;0.30;;;13.70;99.90;;;;;;6154037;23;20442;-79
2022/09/18 04:12:44;;;;;;;0.30;0.30;;;13.80;99.60;;;;;;6154497;23;20001;-79
2022/09/18 04:15:09;;;;;;;0.17;0.17;;;13.70;99.40;;;;;;6154581;23;20001;-79
2022/09/18 04:17:35;;;;;;;0.20;0.20;;;13.70;99.30;;;;;;6154345;23;20008;-79
2022/09/18 04:20:01;;;;;;;0.20;0.20;;;13.70;99.80;;;;;;6152610;23;20009;-79
2022/09/18 04:22:27;;;;;;;0.20;0.17;;;13.70;99.20;;;;;;6154352;23;19997;-79
2022/09/18 04:24:52;;;;;;;0.30;0.30;;;13.70;98.70;;;;;;6152654;23;20378;-79
2022/09/18 04:27:18;;;;;;;0.15;0.15;;;13.80;99.00;;;;;;6154440;23;20013;-79
2022/09/18 04:29:44;;;;;;;0.20;0.20;;;13.80;98.60;;;;;;6154302;23;20338;-79
2022/09/18 04:32:09;;;;;;;0.30;0.30;;;13.80;98.50;;;;;;6177489;23;20053;-79
2022/09/18 04:34:35;;;;;;;0.30;0.20;;;13.90;98.30;;;;;;6154470;23;20334;-79
2022/09/18 04:37:01;;;;;;;0.80;0.30;;;13.80;99.00;;;;;;6154437;23;20445;-79
2022/09/18 04:39:27;;;;;;;1.23;0.30;;;13.90;99.20;;;;;;6154240;23;20333;-79
2022/09/18 04:41:53;;;;;;;0.40;0.40;;;13.80;99.20;;;;;;6154098;23;20076;-79
2022/09/18 04:44:18;;;;;;;0.10;0.10;;;13.80;98.70;;;;;;6177528;23;20029;-79
2022/09/18 04:46:44;;;;;;;0.20;0.20;;;13.80;98.80;;;;;;6154333;23;20005;-79
2022/09/18 04:49:10;;;;;;;0.30;0.30;;;13.80;98.90;;;;;;6154023;23;20028;-79
2022/09/18 04:51:35;;;;;;;0.25;0.25;;;13.90;99.10;;;;;;6152490;23;20048;-79
2022/09/18 04:54:01;;;;;;;0.10;0.10;;;13.90;99.10;;;;;;6152379;23;20457;-79
2022/09/18 04:56:27;;;;;;;0.20;0.20;;;13.80;98.80;;;;;;6154134;23;20013;-79
2022/09/18 04:58:53;;;;;;;0.22;0.22;;;13.80;99.10;;;;;;6154125;23;20378;-79
2022/09/18 05:01:18;;;;;;;0.10;0.10;;;13.80;99.20;;;;;;6153979;23;20004;-79
2022/09/18 05:03:44;;;;;;;2.20;0.13;;;13.80;99.60;;;;;;6154041;23;20005;-79
2022/09/18 05:06:09;;;;;;;0.20;0.20;;;13.80;99.20;;;;;;6153881;23;20334;-79
2022/09/18 05:08:36;;;;;;;0.20;0.20;;;13.90;99.10;;;;;;6153923;23;20041;-79
2022/09/18 05:11:03;;;;;;;0.40;0.28;;;13.90;99.30;;;;;;6153906;23;20009;-78
2022/09/18 05:13:29;;;;;;;0.20;0.20;;;13.80;99.90;;;;;;6152223;23;20016;-78
2022/09/18 05:15:55;;;;;;;0.20;0.20;;;13.70;99.90;;;;;;6152390;23;20357;-78
2022/09/18 05:18:22;;;;;;;0.20;0.20;;;13.70;99.90;;;;;;6154038;23;20007;-78
2022/09/18 05:20:47;;;;;;;0.20;0.20;;;13.70;99.90;;;;;;6153997;23;20002;-79
2022/09/18 05:23:14;;;;;;;0.20;0.20;;;13.60;99.90;;;;;;6152227;23;20052;-79
2022/09/18 05:25:41;;;;;;;0.25;0.25;;;13.60;99.90;;;;;;6153928;23;20060;-79
2022/09/18 05:28:08;;;;;;;0.45;0.13;;;13.70;99.90;;;;;;6177080;23;20002;-79
2022/09/18 05:30:34;;;;;;;0.20;0.20;;;13.70;99.90;;;;;;6153710;23;20073;-79
2022/09/18 05:33:06;;;;;;;0.20;0.20;;;13.70;99.90;;;;;;6153872;23;20095;-79
2022/09/18 05:35:34;;;;;;;0.20;0.20;;;13.80;99.90;;;;;;6153988;23;20006;-79
2022/09/18 05:38:00;;;;;;;2.55;0.35;;;13.80;99.90;;;;;;6151698;23;20006;-79
2022/09/18 05:40:31;;;;;;;0.22;0.22;;;13.80;99.40;;;;;;6153864;23;20382;-79
2022/09/18 05:42:57;;;;;;;0.20;0.20;;;13.70;99.40;;;;;;6152634;23;20034;-78
2022/09/18 05:45:24;;;;;;;0.28;0.28;;;13.70;99.90;;;;;;6153663;23;20002;-78
2022/09/18 05:47:58;;;;;;;0.20;0.20;;;13.60;99.90;;;;;;6154106;23;20442;-78
2022/09/18 05:50:24;;;;;;;0.17;0.15;;;13.70;99.90;;;;;;6153889;23;20084;-78
2022/09/18 05:53:04;;;;;;;0.20;0.20;;;13.70;99.90;;;;;;6152253;23;20468;-78
2022/09/18 05:55:31;;;;;;;1.65;0.20;;;13.80;99.90;;;;;;6152157;23;20017;-79
2022/09/18 05:57:58;;;;;;;0.40;0.40;;;13.80;99.90;;;;;;6152360;23;20456;-80
2022/09/18 06:00:25;;;;;;;0.20;0.20;;;13.90;99.90;;;;;;6152175;23;20002;-79
2022/09/18 06:02:55;;;;;;;0.20;0.20;;;13.90;99.90;;;;;;6154033;23;20008;-79
2022/09/18 06:05:21;;;;;;;0.28;0.20;;;14.00;99.90;;;;;;6152410;23;20016;-80
2022/09/18 06:07:48;;;;;;;0.10;0.10;;;14.00;99.90;;;;;;6153772;23;20001;-80
2022/09/18 06:10:14;;;;;;;0.20;0.20;;;14.10;99.90;;;;;;6152168;23;20036;-79
2022/09/18 06:12:39;;;;;;;2.30;2.20;;;14.10;99.90;;;;;;6153475;23;20053;-82
2022/09/18 06:15:05;;;;;;;3.35;3.05;;;14.70;99.90;;;;;;6151887;23;20005;-81
2022/09/18 06:17:31;;;;;;;4.70;1.75;;;15.80;99.90;;;;;;6152641;23;20006;-81
2022/09/18 06:19:58;;;;;;;3.97;1.20;;;16.30;99.90;;;;;;6152745;23;20080;-81
2022/09/18 06:22:25;;;;;;;2.28;1.83;;;15.80;99.90;;;;;;6150245;23;20468;-81
2022/09/18 06:24:51;;;;;;;1.83;1.17;;;15.40;99.90;;;;;;6151341;23;20027;-81
2022/09/18 06:27:16;;;;;;;0.90;0.90;;;15.20;99.90;;;;;;6151421;23;20096;-75
2022/09/18 06:29:42;;;;;;;3.53;0.85;;;15.00;99.90;;;;;;6151088;23;20009;-76
2022/09/18 06:32:08;;;;;;;3.10;1.13;;;14.90;99.90;;;;;;6152060;23;20009;-75
2022/09/18 06:34:34;;;;;;;0.52;0.52;;;14.80;99.90;;;;;;6153715;23;20156;-75
2022/09/18 06:37:00;;;;;;;0.30;0.30;;;14.70;99.90;;;;;;6151430;23;20252;-76
2022/09/18 06:39:25;;;;;;;0.63;0.50;;;14.70;99.90;;;;;;6153051;23;20319;-76
2022/09/18 06:41:52;;;;;;;0.30;0.30;;;14.70;99.90;;;;;;6151800;23;20008;-76
2022/09/18 06:44:17;;;;;;;1.55;0.40;;;14.70;99.90;;;;;;6151648;23;20044;-76
2022/09/18 06:46:43;;;;;;;0.40;0.40;;;14.70;99.90;;;;;;6176239;23;20005;-75
2022/09/18 06:49:09;;;;;;;0.10;0.10;;;14.70;99.90;;;;;;6176284;23;20002;-75
2022/09/18 06:51:34;;;;;;;0.20;0.20;;;14.70;99.90;;;;;;6154375;23;20006;-75
2022/09/18 06:54:00;;;;;;;0.20;0.20;;;14.70;99.90;;;;;;6153352;23;20009;-75
2022/09/18 06:56:26;;;;;;;0.20;0.20;;;14.70;99.90;;;;;;6153520;23;20446;-75
2022/09/18 06:58:52;;;;;;;0.32;0.32;;;14.80;99.90;;;;;;6155172;23;20334;-75
2022/09/18 07:01:18;;;;;;;0.20;0.20;;;14.80;99.90;;;;;;6154927;23;19998;-76
2022/09/18 07:03:47;;;;;;;0.20;0.20;;;14.80;99.90;;;;;;6155306;23;20012;-76
2022/09/18 07:06:13;;;;;;;0.43;0.40;;;14.80;99.90;;;;;;6155171;23;20006;-75
2022/09/18 07:08:38;;;;;;;0.55;0.30;;;14.90;99.90;;;;;;6155256;23;20006;-75
2022/09/18 07:11:04;;;;;;;1.27;0.30;;;14.70;99.90;;;;;;6155029;23;20048;-75
2022/09/18 07:13:33;;;;;;;2.25;0.55;;;14.80;99.90;;;;;;6155020;23;19993;-75
2022/09/18 07:15:59;;;;;;;0.90;0.73;;;14.80;99.90;;;;;;6155143;23;20485;-76
2022/09/18 07:18:25;;;;;;;61.83;25.08;;;14.80;99.90;;;;;;6154994;23;20005;-75
2022/09/18 07:20:52;;;;;;;23.30;9.68;;;14.90;99.90;;;;;;6154914;23;20051;-75
2022/09/18 07:23:18;;;;;;;1.35;1.25;;;14.90;99.90;;;;;;6154921;23;20457;-75
2022/09/18 07:25:45;;;;;;;3.10;1.17;;;14.80;99.90;;;;;;6154854;23;20072;-75
2022/09/18 07:28:11;;;;;;;1.15;0.88;;;14.80;99.90;;;;;;6153337;23;20072;-76
2022/09/18 07:30:38;;;;;;;5.43;2.30;;;14.90;99.90;;;;;;6154846;23;20032;-75
2022/09/18 07:33:05;;;;;;;7.65;2.63;;;15.00;99.90;;;;;;6153116;23;20001;-76
2022/09/18 07:35:31;;;;;;;5.50;2.20;;;15.10;99.90;;;;;;6153077;23;20301;-76
2022/09/18 07:38:01;;;;;;;2.22;1.50;;;15.20;99.90;;;;;;6154658;23;20052;-75
2022/09/18 07:40:28;;;;;;;0.73;0.73;;;15.30;99.90;;;;;;6154640;23;20056;-75
2022/09/18 07:43:02;;;;;;;1.20;1.10;;;15.30;99.90;;;;;;6154751;23;20004;-75
2022/09/18 07:45:28;;;;;;;2.90;1.02;;;15.30;99.90;;;;;;6152917;23;20005;-75
2022/09/18 07:47:54;;;;;;;1.55;1.27;;;15.40;99.90;;;;;;6153043;23;20009;-75
2022/09/18 07:50:21;;;;;;;1.20;1.10;;;15.50;99.90;;;;;;6152802;23;20335;-75
2022/09/18 07:52:51;;;;;;;1.73;1.63;;;15.50;99.90;;;;;;6153282;23;20002;-75
2022/09/18 07:55:19;;;;;;;1.45;1.27;;;15.60;99.90;;;;;;6154345;23;20009;-75
2022/09/18 07:57:53;;;;;;;1.13;0.63;;;15.60;99.90;;;;;;6153167;23;20001;-75
2022/09/18 08:00:18;;;;;;;5.18;3.45;;;15.60;99.90;;;;;;6177182;23;20040;-75
2022/09/18 08:02:44;;;;;;;4.18;3.00;;;15.60;99.90;;;;;;6154552;23;20001;-75
2022/09/18 08:05:10;;;;;;;1.17;0.98;;;15.70;99.90;;;;;;6154557;23;20091;-75
2022/09/18 08:07:36;;;;;;;4.18;1.90;;;15.70;99.90;;;;;;6154360;23;20006;-75
2022/09/18 08:10:03;;;;;;;7.25;3.50;;;15.80;99.90;;;;;;6154471;23;20001;-76
2022/09/18 08:12:28;;;;;;;2.33;1.92;;;15.80;99.90;;;;;;6154519;23;20069;-75
2022/09/18 08:14:54;;;;;;;1.77;1.23;;;15.80;99.90;;;;;;6154301;23;20040;-75
2022/09/18 08:17:20;;;;;;;1.23;0.98;;;15.90;99.90;;;;;;6153091;23;20012;-75
2022/09/18 08:19:45;;;;;;;0.85;0.50;;;16.00;99.90;;;;;;6154206;23;20001;-75
2022/09/18 08:22:12;;;;;;;0.95;0.63;;;16.00;99.90;;;;;;6152793;23;20087;-76
2022/09/18 08:24:38;;;;;;;1.08;0.60;;;16.00;99.90;;;;;;6177732;23;20013;-75
2022/09/18 08:27:04;;;;;;;0.65;0.60;;;16.00;99.90;;;;;;6154248;23;20013;-75
2022/09/18 08:29:30;;;;;;;0.57;0.43;;;16.00;99.90;;;;;;6154225;23;20001;-75
2022/09/18 08:31:55;;;;;;;0.90;0.65;;;15.90;99.90;;;;;;6154460;23;20080;-75
2022/09/18 08:34:21;;;;;;;1.40;0.70;;;15.90;99.90;;;;;;6152388;23;20037;-75
2022/09/18 08:36:47;;;;;;;0.70;0.55;;;16.00;99.90;;;;;;6175772;23;20029;-75
2022/09/18 08:39:13;;;;;;;0.55;0.55;;;16.10;99.90;;;;;;6154127;23;20012;-75
2022/09/18 08:42:07;;;;;;;4.00;2.03;;;16.10;99.90;;;;;;6154375;23;20283;-77
2022/09/18 08:44:44;;;;;;;8.40;2.50;;;16.70;99.90;;;;;;6156103;23;20420;-76
2022/09/18 08:47:25;;;;;;;2.38;1.98;;;17.40;99.90;;;;;;6155749;23;20012;-77
2022/09/18 08:50:03;;;;;;;2.95;1.58;;;17.60;99.90;;;;;;6154188;23;20438;-77
2022/09/18 08:52:33;;;;;;;3.67;1.13;;;17.80;99.90;;;;;;6154331;23;20006;-77
2022/09/18 08:55:18;;;;;;;0.70;0.70;;;18.00;99.90;;;;;;6155512;23;20319;-76
2022/09/18 08:57:46;;;;;;;3.03;1.25;;;18.10;99.90;;;;;;6154392;23;20181;-77
2022/09/18 09:00:27;;;;;;;4.20;1.20;;;18.10;99.90;;;;;;6154033;23;20009;-77
2022/09/18 09:03:14;;;;;;;21.85;3.08;;;18.20;99.90;;;;;;6155980;23;20001;-77
2022/09/18 09:05:55;;;;;;;2.55;1.75;;;18.20;99.90;;;;;;6155636;23;20075;-77
2022/09/18 09:08:46;;;;;;;0.80;0.75;;;18.20;99.90;;;;;;6154088;23;20338;-76
2022/09/18 09:11:36;;;;;;;1.27;0.73;;;18.00;99.90;;;;;;6155773;23;20009;-77
2022/09/18 09:14:15;;;;;;;3.42;0.93;;;18.10;99.90;;;;;;6155563;23;20088;-77
2022/09/18 09:16:49;;;;;;;1.25;0.60;;;18.20;99.90;;;;;;6155306;23;20006;-77
2022/09/18 09:19:49;;;;;;;0.30;0.30;;;18.30;99.90;;;;;;6155747;23;20430;-77
2022/09/18 09:22:32;;;;;;;0.60;0.60;;;18.20;99.90;;;;;;6151933;23;20426;-76
2022/09/18 09:25:04;;;;;;;1.27;0.82;;;18.20;99.90;;;;;;6154241;23;20005;-77
2022/09/18 09:27:37;;;;;;;0.70;0.70;;;18.10;99.90;;;;;;6155397;23;20008;-77
2022/09/18 09:30:11;;;;;;;0.68;0.68;;;18.10;99.90;;;;;;6155380;23;20512;-77
2022/09/18 09:32:43;;;;;;;0.68;0.68;;;18.10;99.90;;;;;;6155820;23;20005;-77
2022/09/18 09:35:41;;;;;;;10.57;0.75;;;18.10;99.90;;;;;;6155541;23;20008;-76
2022/09/18 09:38:40;;;;;;;0.50;0.50;;;18.00;98.70;;;;;;6155784;23;20029;-77
2022/09/18 09:41:12;;;;;;;0.60;0.60;;;18.20;99.90;;;;;;6153521;23;20028;-77
2022/09/18 09:43:52;;;;;;;;;;;18.10;99.90;;;;;;6154095;23;20009;-77
2022/09/18 09:46:41;;;;;;;0.70;0.60;;;18.20;99.90;;;;;;6154947;23;20283;-77
2022/09/18 09:49:16;;;;;;;0.60;0.60;;;18.20;99.90;;;;;;6146889;23;20030;-77
2022/09/18 09:52:14;;;;;;;1.17;0.70;;;18.20;99.90;;;;;;6153800;23;20467;-76
2022/09/18 09:54:40;;;;;;;1.60;0.80;;;18.40;99.90;;;;;;6155221;23;20006;-77
2022/09/18 09:57:24;;;;;;;0.50;0.50;;;18.40;99.90;;;;;;6155099;23;20106;-77
2022/09/18 10:00:25;;;;;;;0.60;0.60;;;18.40;99.90;;;;;;6155505;23;20037;-77
2022/09/18 10:03:13;;;;;;;0.70;0.60;;;18.50;99.90;;;;;;6149480;23;20060;-77
2022/09/18 10:05:58;;;;;;;0.98;0.70;;;18.60;99.90;;;;;;6153660;23;20338;-77
2022/09/18 10:08:30;;;;;;;1.90;0.93;;;18.60;99.90;;;;;;6154672;23;20009;-76
2022/09/18 10:10:58;;;;;;;2.38;1.00;;;18.60;99.90;;;;;;6155750;23;20315;-77
2022/09/18 10:13:28;;;;;;;3.05;1.20;;;18.70;99.90;;;;;;6154644;23;20009;-77
2022/09/18 10:16:25;;;;;;;1.98;0.90;;;18.60;99.90;;;;;;6155784;23;20081;-77
2022/09/18 10:18:51;;;;;;;1.30;1.20;;;18.70;99.60;;;;;;6144820;23;20507;-77
2022/09/18 10:21:23;;;;;;;2.90;0.95;;;18.80;99.90;;;;;;6157118;23;20033;-76
2022/09/18 10:23:58;;;;;;;0.57;0.57;;;18.80;99.90;;;;;;6157423;23;20006;-77
2022/09/18 10:26:39;;;;;;;1.60;0.50;;;18.80;98.10;;;;;;6155117;23;20010;-76
2022/09/18 10:29:05;;;;;;;1.60;0.70;;;18.80;99.90;;;;;;6155715;23;20009;-76
2022/09/18 10:32:00;;;;;;;1.63;1.00;;;18.80;99.90;;;;;;6155751;23;20009;-77
2022/09/18 10:34:47;;;;;;;0.73;0.73;;;18.80;98.30;;;;;;6155662;23;20084;-77
2022/09/18 10:37:29;;;;;;;0.73;0.73;;;18.80;98.70;;;;;;6154892;23;20446;-77
2022/09/18 10:40:00;;;;;;;0.80;0.70;;;18.80;98.90;;;;;;6156616;23;19998;-76
2022/09/18 10:42:31;;;;;;;0.80;0.75;;;19.00;99.90;;;;;;6155397;23;20010;-76
2022/09/18 10:45:04;;;;;;;0.90;0.90;;;19.00;99.20;;;;;;6156737;23;20001;-76
2022/09/18 10:47:34;;;;;;;2.05;0.80;;;19.10;99.40;;;;;;6154637;23;20005;-77
2022/09/18 10:50:13;;;;;;;1.10;0.73;;;19.10;99.40;;;;;;6155395;23;20009;-76
2022/09/18 10:52:40;;;;;;;1.50;1.13;;;19.20;99.80;;;;;;6157081;23;20002;-77
2022/09/18 10:55:08;;;;;;;0.80;0.80;;;19.20;99.90;;;;;;6154686;23;20012;-77
2022/09/18 10:57:43;;;;;;;1.40;1.30;;;19.30;99.90;;;;;;6156988;23;20002;-77
2022/09/18 11:00:12;;;;;;;0.93;0.88;;;19.40;99.00;;;;;;6155264;23;20482;-76
2022/09/18 11:03:03;;;;;;;2.20;1.52;;;19.30;98.90;;;;;;6155191;23;20029;-77
2022/09/18 11:05:35;;;;;;;3.22;1.80;;;19.40;99.90;;;;;;6148225;23;20005;-76
2022/09/18 11:08:05;;;;;;;2.15;1.58;;;19.50;99.90;;;;;;6156828;23;20076;-77
2022/09/18 11:10:32;;;;;;;1.35;1.25;;;19.50;99.90;;;;;;6154488;23;20005;-77
2022/09/18 11:13:01;;;;;;;1.10;1.10;;;19.50;99.90;;;;;;6156855;23;20006;-76
2022/09/18 11:15:33;;;;;;;3.45;1.40;;;19.60;99.90;;;;;;6154864;23;20010;-76
2022/09/18 11:18:04;;;;;;;1.45;1.25;;;19.60;99.40;;;;;;6155041;23;20006;-76
2022/09/18 11:20:38;;;;;;;1.48;1.20;;;19.60;99.20;;;;;;6156627;23;20002;-77
2022/09/18 11:23:24;;;;;;;1.75;1.48;;;19.60;97.60;;;;;;6156361;23;20045;-77
2022/09/18 11:26:11;;;;;;;1.48;1.17;;;19.60;98.90;;;;;;6156255;23;20366;-76
2022/09/18 11:28:37;;;;;;;1.30;1.20;;;19.60;99.80;;;;;;6155060;23;20006;-77
2022/09/18 11:31:17;;;;;;;1.50;0.93;;;19.70;97.90;;;;;;6156409;23;20009;-77
2022/09/18 11:34:15;;;;;;;1.88;0.88;;;19.80;98.50;;;;;;6154613;23;20573;-77
2022/09/18 11:36:47;;;;;;;1.10;1.00;;;19.80;98.50;;;;;;6179535;23;20037;-77
2022/09/18 11:39:41;;;;;;;0.80;0.80;;;19.80;97.90;;;;;;6154726;23;20534;-76
2022/09/18 11:42:16;;;;;;;0.60;0.60;;;19.90;98.80;;;;;;6148058;23;20001;-77
2022/09/18 11:44:41;;;;;;;0.82;0.60;;;20.00;99.10;;;;;;6156259;23;20080;-77
2022/09/18 11:47:31;;;;;;;0.57;0.30;;;20.00;96.10;;;;;;6154504;23;20033;-77
2022/09/18 11:50:10;;;;;;;1.75;0.30;;;20.10;94.30;;;;;;6154722;23;20136;-77
2022/09/18 11:52:51;;;;;;;0.50;0.47;;;20.10;92.30;;;;;;6154719;23;20005;-77
2022/09/18 11:55:52;;;;;;;1.13;0.50;;;20.20;91.20;;;;;;6155551;23;20562;-77
2022/09/18 11:58:29;;;;;;;0.60;0.40;;;20.20;91.50;;;;;;6151630;23;20037;-77
2022/09/18 12:01:32;;;;;;;0.50;0.50;;;20.30;90.70;;;;;;6152548;23;20410;-77
2022/09/18 12:04:20;;;;;;;0.77;0.60;;;20.40;91.10;;;;;;6155149;23;20028;-77
2022/09/18 12:07:01;;;;;;;0.50;0.50;;;20.40;91.20;;;;;;6153468;23;20031;-77
2022/09/18 12:09:50;;;;;;;0.95;0.80;;;20.30;90.70;;;;;;6154730;23;20008;-77
2022/09/18 12:13:03;;;;;;;0.77;0.70;;;20.30;92.50;;;;;;6156059;23;20132;-77
2022/09/18 12:15:34;;;;;;;0.70;0.70;;;20.40;93.40;;;;;;6114405;23;20347;-77
2022/09/18 12:18:15;;;;;;;0.70;0.70;;;20.30;93.60;;;;;;6152002;23;20062;-77
2022/09/18 12:20:57;;;;;;;0.75;0.73;;;20.40;93.70;;;;;;6152667;23;20060;-77
2022/09/18 12:23:24;;;;;;;1.07;1.07;;;20.50;93.60;;;;;;6152871;23;20017;-77
2022/09/18 12:25:53;;;;;;;0.82;0.82;;;20.50;91.90;;;;;;6152823;23;20229;-77
2022/09/18 12:28:29;;;;;;;1.30;1.20;;;20.60;91.30;;;;;;6152886;23;20107;-77
2022/09/18 12:31:04;;;;;;;7.43;1.30;;;20.60;91.30;;;;;;6153997;23;20004;-77
2022/09/18 12:33:54;;;;;;;0.93;0.93;;;20.70;91.30;;;;;;6152730;23;20056;-77
2022/09/18 12:36:40;;;;;;;0.90;0.85;;;20.70;91.60;;;;;;6154300;23;20064;-77
2022/09/18 12:39:21;;;;;;;2.78;1.60;;;20.70;93.10;;;;;;6152550;23;20005;-77
2022/09/18 12:42:16;;;;;;;2.55;1.45;;;20.70;93.10;;;;;;6154070;23;20426;-77
2022/09/18 12:44:51;;;;;;;1.67;1.58;;;20.80;92.80;;;;;;6152388;23;20005;-77
2022/09/18 12:47:41;;;;;;;2.15;1.73;;;20.80;91.50;;;;;;6154250;23;20342;-77
2022/09/18 12:50:22;;;;;;;2.67;2.10;;;20.90;92.20;;;;;;6153931;23;20001;-77
2022/09/18 12:53:12;;;;;;;1.90;1.80;;;20.90;91.60;;;;;;6154119;23;20060;-77
2022/09/18 12:55:50;;;;;;;2.70;2.50;;;21.00;91.90;;;;;;6152319;23;20350;-77
2022/09/18 12:58:34;;;;;;;2.17;1.98;;;21.10;90.40;;;;;;6153985;23;20077;-77
2022/09/18 13:01:08;;;;;;;2.50;2.30;;;21.10;89.80;;;;;;6153858;23;20445;-77
2022/09/18 13:03:37;;;;;;;2.67;2.20;;;21.10;90.30;;;;;;6154100;23;20029;-76
2022/09/18 13:06:13;;;;;;;2.45;2.17;;;21.10;87.70;;;;;;6153899;23;20009;-77
2022/09/18 13:08:48;;;;;;;3.00;2.67;;;21.20;88.70;;;;;;6152522;23;20001;-77
2022/09/18 13:11:40;;;;;;;2.65;2.45;;;21.30;88.20;;;;;;6153921;23;20084;-77
2022/09/18 13:14:18;;;;;;;2.85;2.65;;;21.40;89.10;;;;;;6152316;23;20037;-77
2022/09/18 13:16:56;;;;;;;2.70;2.50;;;21.50;89.20;;;;;;6153960;23;19998;-77